Map Display - EGBP to EGGP
(last flight recorded 08-03-2021, 21:21 - Andrew Siddall)

Aircraft Weights    Units : Maximums
Passengers :   70  
Cargo : kg 2,520 kg
Suggested Fuel Load : kg 13,370 kg
 
     
 
Dry Operating : 19,625 kg    
Total Payload : 0 kg 8,450 kg
 
Take Off : 20,992 kg 33,112 kg
 
Expected Landing : 20,400 kg ? kg

Geoff Price,  DC4 ,  G-ARIY,  .

Route Distance Previous
Flights
Average
Duration
Average
Fuel Flow
Average
Fuel Use
EGBP - Kemble
EGGP - Liverpool
104 nm 5 00:48 775 kg/h 592 kg

Current weather :-
 
2021/03/09 06:06
TAF EGGP 090458Z 0906/1006 22004KT 9999 SCT020
BECMG 0906/0908 BKN014 PROB30
TEMPO 0906/0910 7000 -RA BKN006
BECMG 0911/0914 SCT016
BECMG 0915/0918 19014KT
BECMG 0920/0923 20018G30KT
TEMPO 0920/1006 6000 RA BKN014

Back to Virtual Airline